Flight Track Log - Related Links

Times and Time Zones

All times are in EDT time to prevent confusion due to time zone crossing. See the N244A flight status page for this flight to view local times or setup timezone preferences in your user account.

Time Position Orientation Groundspeed Altitude Reporting Facility
EDT Latitude Longitude Course Direction KTS MPH feet Rate Location/Type
Thu 07:12:00 PM 45.4615 -84.7833 180° South  Level FlightAware Approximate
Thu 07:13:00 PM 45.3563 -84.7833 180° South  Level FlightAware Approximate
Thu 07:14:00 PM 45.2510 -84.7833 180° South  Level FlightAware Approximate
Thu 07:15:00 PM 45.1458 -84.7829 176° South  Level FlightAware Approximate
Thu 07:16:00 PM 45.0410 -84.7712 176° South  Level FlightAware Approximate
Thu 07:17:00 PM 44.9359 -84.7667 180° South  Level FlightAware Approximate
Thu 07:18:00 PM 44.8307 -84.7667 180° South  Level FlightAware Approximate
Thu 07:19:00 PM 44.7254 -84.7667 180° South  Level FlightAware Approximate
Thu 07:20:00 PM 44.6203 -84.7648 174° South  Level FlightAware Approximate
Thu 07:21:00 PM 44.5156 -84.7500 180° South  Level FlightAware Approximate
Thu 07:22:00 PM 44.4104 -84.7500 180° South  Level FlightAware Approximate
Thu 07:23:00 PM 44.3052 -84.7500 180° South  Level FlightAware Approximate
Thu 07:24:00 PM 44.2000 -84.7500 180° South  Level FlightAware Approximate
Thu 07:25:00 PM 44.0949 -84.7465 176° South  Level FlightAware Approximate
Thu 07:26:00 PM 43.9899 -84.7370 176° South  Level FlightAware Approximate
Thu 07:27:00 PM 43.8848 -84.7333 180° South  Level FlightAware Approximate
Thu 07:28:00 PM 43.7795 -84.7333 180° South  Level FlightAware Approximate
Thu 07:29:00 PM 43.6743 -84.7333 180° South  Level FlightAware Approximate
Thu 07:30:00 PM 43.5697 -84.7253 169° South  Level FlightAware Approximate
Thu 07:31:00 PM 43.4663 -84.6981 169° South  Level FlightAware Approximate
Thu 07:32:00 PM 43.3630 -84.6709 169° South  Level FlightAware Approximate
Thu 07:33:00 PM 43.2593 -84.6484 171° South  Level FlightAware Approximate
Thu 07:34:00 PM 43.1555 -84.6253 171° South  Level FlightAware Approximate
Thu 07:35:00 PM 43.0515 -84.6030 171° South  Level FlightAware Approximate
Thu 07:36:00 PM 42.9475 -84.5813 171° South  Level FlightAware Approximate
Thu 07:37:00 PM 42.8435 -84.5596 171° South  Level FlightAware Approximate
Thu 07:38:00 PM 42.7395 -84.5381 171° South  Level FlightAware Approximate
Thu 07:39:00 PM 42.6356 -84.5160 171° South  Level FlightAware Approximate
Thu 07:40:00 PM 42.5316 -84.4938 171° South  Level FlightAware Approximate
Thu 07:41:00 PM 42.4277 -84.4716 171° South  Level FlightAware Approximate
Thu 07:42:00 PM 42.3237 -84.4496 171° South  Level FlightAware Approximate
Thu 07:43:00 PM 42.2198 -84.4276 171° South  Level FlightAware Approximate
Thu 07:44:00 PM 42.1158 -84.4057 171° South  Level FlightAware Approximate
Thu 07:45:00 PM 42.0119 -84.3839 171° South  Level FlightAware Approximate
Thu 07:46:00 PM 41.9079 -84.3621 171° South  Level FlightAware Approximate
Thu 07:47:00 PM 41.8040 -84.3401 171° South  Level FlightAware Approximate
Thu 07:48:00 PM 41.7001 -84.3178 171° South  Level FlightAware Approximate
Thu 07:49:00 PM 41.5961 -84.2963 172° South  Level FlightAware Approximate
Thu 07:50:00 PM 41.4919 -84.2773 172° South  Level FlightAware Approximate
Thu 07:51:00 PM 41.3876 -84.2590 173° South  Level FlightAware Approximate
Thu 07:52:00 PM 41.2835 -84.2389 170° South  Level FlightAware Approximate
Thu 07:53:00 PM 41.1797 -84.2158 170° South  Level FlightAware Approximate
Thu 07:54:00 PM 41.0760 -84.1928 171° South  Level FlightAware Approximate
Thu 07:55:00 PM 40.9720 -84.1711 171° South  Level FlightAware Approximate
Thu 07:56:00 PM 40.8683 -84.1500 180° South  Level FlightAware Approximate
Thu 07:57:00 PM 40.7640 -84.1351 171° South  Level FlightAware Approximate
Thu 07:57:35 PM 45.5728 -84.9014 189° South 235 270 5,600  Level Minneapolis Center
Thu 07:58:00 PM 40.6601 -84.1128 171° South  Level FlightAware Approximate
Thu 07:58:37 PM 45.4997 -84.9325 197° South 270 311 9,500  Level Minneapolis Center
Thu 07:59:00 PM 40.5565 -84.0891 169° South  Level FlightAware Approximate
Thu 07:59:40 PM 45.4056 -84.9381 182° South 324 373 12,000  Level Minneapolis Center
Thu 08:00:00 PM 40.4527 -84.0660 171° South  Level FlightAware Approximate
Thu 08:00:42 PM 45.2836 -84.9303 177° South 360 414 11,000  Level Minneapolis Center
Thu 08:01:00 PM 40.3489 -84.0438 171° South  Level FlightAware Approximate
Thu 08:01:44 PM 45.1967 -84.9214 176° South 336 387 9,900  Level Minneapolis Center
Thu 08:02:00 PM 40.2448 -84.0411 189° South  Level FlightAware Approximate
Thu 08:02:45 PM 45.1269 -84.9172 178° South 323 372 9,900  Level Minneapolis Center
Thu 08:03:48 PM 45.0197 -84.8989 173° South 320 368 10,000 48 Climbing Minneapolis Center
Thu 08:04:49 PM 44.9300 -84.8836 173° South 321 369 10,000  Level Minneapolis Center
Thu 08:05:51 PM 44.8244 -84.8761 177° South 365 420 10,000  Level Minneapolis Center
Thu 08:06:53 PM 44.7275 -84.8617 174° South 359 413 10,000  Level Minneapolis Center
Thu 08:07:55 PM 44.6014 -84.8481 176° South 367 422 10,000 629 Level Minneapolis Center
Thu 08:08:57 PM 44.4900 -84.8375 176° South 378 435 11,300 1,742 Climbing Minneapolis Center
Thu 08:09:59 PM 44.3703 -84.8211 174° South 401 461 13,600 2,129 Climbing Minneapolis Center
Thu 08:11:01 PM 44.2497 -84.8086 176° South 418 481 15,700 1,887 Climbing Minneapolis Center
Thu 08:12:03 PM 44.1269 -84.7942 175° South 429 494 17,500 1,645 Climbing Minneapolis Center
Thu 08:13:05 PM 44.0025 -84.7789 175° South 439 505 19,100 1,597 Climbing Minneapolis Center
Thu 08:14:07 PM 43.8714 -84.7689 177° South 452 520 20,800 1,403 Climbing Minneapolis Center
Thu 08:15:09 PM 43.7425 -84.7508 174° South 458 527 22,000 1,122 Climbing Minneapolis Center
Thu 08:16:10 PM 43.5789 -84.7342 176° South 472 543 23,100 1,765 Climbing Minneapolis Center
Thu 08:17:25 PM 43.4181 -84.6928 169° South 482 555 26,000 2,250 Climbing Minneapolis Center
Thu 08:18:26 PM 43.2911 -84.6628 170° South 475 547 28,200 1,745 Climbing Minneapolis Center
Thu 08:19:15 PM 43.1914 -84.6414 171° South 477 549 29,200 991 Climbing Cleveland Center
Thu 08:20:15 PM 43.0589 -84.6128 171° South 477 549 30,000 397 Climbing Cleveland Center
Thu 08:21:16 PM 42.9097 -84.5833 172° South 487 560 30,000  Level Cleveland Center
Thu 08:22:15 PM 42.7669 -84.5514 171° South 501 577 30,000  Level Cleveland Center
Thu 08:23:15 PM 42.6367 -84.5264 172° South 520 598 30,000  Level Cleveland Center
Thu 08:24:15 PM 42.4936 -84.4978 172° South 525 604 30,000  Level Cleveland Center
Thu 08:25:15 PM 42.3508 -84.4664 171° South 525 604 30,000  Level Cleveland Center
Thu 08:26:15 PM 42.1914 -84.4314 171° South 525 604 30,000 -100 Level Cleveland Center
Thu 08:27:15 PM 42.0694 -84.4017 170° South 519 597 29,800 -750 Descending Cleveland Center
Thu 08:28:15 PM 41.9328 -84.3739 171° South 509 586 28,500 -900 Descending Cleveland Center
Thu 08:29:15 PM 41.7961 -84.3464 171° South 504 580 28,000 -250 Descending Cleveland Center
Thu 08:30:15 PM 41.6592 -84.3189 171° South 497 572 28,000  Level Cleveland Center
Thu 08:31:15 PM 41.5081 -84.2881 171° South 502 578 28,000  Level Cleveland Center
Thu 08:32:15 PM 41.3650 -84.2603 172° South 509 586 28,000 -50 Level Cleveland Center
Thu 08:33:15 PM 41.2200 -84.2300 171° South 520 598 27,900 -700 Descending Cleveland Center
Thu 08:34:15 PM 41.0842 -84.2419 184° South 508 585 26,600 -1,444 Descending Cleveland Center
Thu 08:35:28 PM 40.9372 -84.2678 188° South 497 572 24,700 -1,164 Descending Indianapolis Center
Thu 08:36:29 PM 40.8058 -84.2931 188° South 485 558 24,000 -878 Descending Indianapolis Center
Thu 08:37:31 PM 40.6528 -84.3008 182° South 462 532 22,900 -1,548 Descending Indianapolis Center
Thu 08:38:33 PM 40.5206 -84.3117 184° South 473 544 20,800 -1,951 Descending Indianapolis Center
Thu 08:39:34 PM 40.3892 -84.3231 184° South 476 548 18,900 -1,854 Descending Indianapolis Center
Thu 08:40:36 PM 40.2631 -84.3319 183° South 462 532 17,000 -1,892 Descending Indianapolis Center
Thu 08:41:25 PM 40.1481 -84.3417 184° South 449 517 15,400 -1,951 Descending Indianapolis Center
Thu 08:42:39 PM 40.0178 -84.3508 183° South 440 506 13,000 -2,000 Descending Indianapolis Center
Thu 08:43:40 PM 39.8994 -84.3594 183° South 432 497 10,900 -1,659 Descending Indianapolis Center
Thu 08:44:42 PM 39.7772 -84.3689 183° South 379 436 9,600 -1,707 Descending Indianapolis Center
Thu 08:45:43 PM 39.6903 -84.3733 182° South 325 374 7,400 -1,902 Descending Indianapolis Center
Thu 08:46:45 PM 39.6061 -84.3803 184° South 314 361 5,700 -1,610 Descending Indianapolis Center
Thu 08:47:46 PM 39.5297 -84.3872 184° South 292 336 4,100 -829 Descending Indianapolis Center
Thu 08:48:48 PM 39.4531 -84.3894 181° South 282 325 4,000 -49 Descending Indianapolis Center
Thu 08:49:49 PM 39.3742 -84.3964 184° South 282 325 4,000 -344 Level Indianapolis Center
Thu 08:50:50 PM 39.3197 -84.3517 148° Southeast 259 298 3,300 -488 Descending Indianapolis Center
Thu 08:51:52 PM 39.2469 -84.3431 175° South 246 283 3,000 -488 Descending Indianapolis Center
Thu 08:52:53 PM 39.1964 -84.3681 201° Southwest 215 247 2,300 -683 Descending Indianapolis Center
Thu 08:53:55 PM 39.1481 -84.3900 199° South 198 228 1,600 -677 Descending Indianapolis Center
Thu 08:55:00 PM 39.1000 -84.4167 191° South  Level FlightAware Approximate
Thu 09:02:00 PM 39.1033 -84.4186 191° South  Level Estimated

Login

Don't have an account? Register now (free) for customized features, flight alerts, and more!